sensor_id;sensor_type;location;lat;lon;timestamp;P1;durP1;ratioP1;P2;durP2;ratioP2
11777;SDS011;5946;51.770;8.548;2023-02-18T00:02:03;35.57;;;21.60;;
11777;SDS011;5946;51.770;8.548;2023-02-18T00:04:29;38.07;;;22.67;;
11777;SDS011;5946;51.770;8.548;2023-02-18T00:06:55;37.27;;;21.67;;
11777;SDS011;5946;51.770;8.548;2023-02-18T00:09:21;35.53;;;21.63;;
11777;SDS011;5946;51.770;8.548;2023-02-18T00:11:47;38.33;;;22.17;;
11777;SDS011;5946;51.770;8.548;2023-02-18T00:14:14;35.30;;;20.70;;
11777;SDS011;5946;51.770;8.548;2023-02-18T00:16:41;34.23;;;20.50;;
11777;SDS011;5946;51.770;8.548;2023-02-18T00:19:09;37.40;;;20.43;;
11777;SDS011;5946;51.770;8.548;2023-02-18T00:21:35;36.53;;;21.63;;
11777;SDS011;5946;51.770;8.548;2023-02-18T00:24:02;34.17;;;21.20;;
11777;SDS011;5946;51.770;8.548;2023-02-18T00:26:28;32.57;;;20.77;;
11777;SDS011;5946;51.770;8.548;2023-02-18T00:28:54;37.30;;;22.10;;
11777;SDS011;5946;51.770;8.548;2023-02-18T00:31:22;33.00;;;21.57;;
11777;SDS011;5946;51.770;8.548;2023-02-18T00:33:48;35.80;;;21.83;;
11777;SDS011;5946;51.770;8.548;2023-02-18T00:36:15;33.87;;;21.40;;
11777;SDS011;5946;51.770;8.548;2023-02-18T00:38:45;30.77;;;20.93;;
11777;SDS011;5946;51.770;8.548;2023-02-18T00:41:11;36.40;;;21.23;;
11777;SDS011;5946;51.770;8.548;2023-02-18T00:43:37;38.70;;;21.57;;
11777;SDS011;5946;51.770;8.548;2023-02-18T00:46:03;33.63;;;20.40;;
11777;SDS011;5946;51.770;8.548;2023-02-18T00:48:30;36.07;;;20.50;;
11777;SDS011;5946;51.770;8.548;2023-02-18T00:50:56;33.97;;;19.80;;
11777;SDS011;5946;51.770;8.548;2023-02-18T00:53:22;32.60;;;20.17;;
11777;SDS011;5946;51.770;8.548;2023-02-18T00:55:48;35.40;;;21.33;;
11777;SDS011;5946;51.770;8.548;2023-02-18T00:58:14;35.10;;;21.23;;
11777;SDS011;5946;51.770;8.548;2023-02-18T01:00:41;32.40;;;22.00;;
11777;SDS011;5946;51.770;8.548;2023-02-18T01:03:06;36.70;;;22.17;;
11777;SDS011;5946;51.770;8.548;2023-02-18T01:05:32;29.40;;;21.57;;
11777;SDS011;5946;51.770;8.548;2023-02-18T01:07:58;39.47;;;23.17;;
11777;SDS011;5946;51.770;8.548;2023-02-18T01:10:24;32.20;;;22.53;;
11777;SDS011;5946;51.770;8.548;2023-02-18T01:12:50;37.77;;;23.17;;
11777;SDS011;5946;51.770;8.548;2023-02-18T01:15:16;36.77;;;23.73;;
11777;SDS011;5946;51.770;8.548;2023-02-18T01:17:43;35.17;;;23.57;;
11777;SDS011;5946;51.770;8.548;2023-02-18T01:20:09;41.23;;;25.67;;
11777;SDS011;5946;51.770;8.548;2023-02-18T01:22:35;42.27;;;24.23;;
11777;SDS011;5946;51.770;8.548;2023-02-18T01:25:02;36.30;;;25.07;;
11777;SDS011;5946;51.770;8.548;2023-02-18T01:27:28;40.97;;;24.97;;
11777;SDS011;5946;51.770;8.548;2023-02-18T01:29:54;36.97;;;25.20;;
11777;SDS011;5946;51.770;8.548;2023-02-18T01:32:20;41.37;;;26.27;;
11777;SDS011;5946;51.770;8.548;2023-02-18T01:34:46;47.73;;;27.27;;
11777;SDS011;5946;51.770;8.548;2023-02-18T01:37:12;45.10;;;27.57;;
11777;SDS011;5946;51.770;8.548;2023-02-18T01:39:38;38.13;;;25.93;;
11777;SDS011;5946;51.770;8.548;2023-02-18T01:42:05;41.20;;;28.73;;
11777;SDS011;5946;51.770;8.548;2023-02-18T01:44:31;43.83;;;27.83;;
11777;SDS011;5946;51.770;8.548;2023-02-18T01:46:58;45.33;;;28.77;;
11777;SDS011;5946;51.770;8.548;2023-02-18T01:51:51;46.33;;;29.93;;
11777;SDS011;5946;51.770;8.548;2023-02-18T01:54:24;46.80;;;30.77;;
11777;SDS011;5946;51.770;8.548;2023-02-18T01:56:54;47.57;;;30.93;;
11777;SDS011;5946;51.770;8.548;2023-02-18T01:59:25;51.43;;;33.10;;
11777;SDS011;5946;51.770;8.548;2023-02-18T02:01:52;47.97;;;32.50;;
11777;SDS011;5946;51.770;8.548;2023-02-18T02:04:18;49.27;;;33.33;;
11777;SDS011;5946;51.770;8.548;2023-02-18T02:06:45;51.20;;;34.20;;
11777;SDS011;5946;51.770;8.548;2023-02-18T02:09:12;52.80;;;35.47;;
11777;SDS011;5946;51.770;8.548;2023-02-18T02:12:01;56.13;;;35.70;;
11777;SDS011;5946;51.770;8.548;2023-02-18T02:17:07;61.07;;;39.33;;
11777;SDS011;5946;51.770;8.548;2023-02-18T02:22:11;69.87;;;41.87;;
11777;SDS011;5946;51.770;8.548;2023-02-18T02:25:33;68.43;;;41.90;;
11777;SDS011;5946;51.770;8.548;2023-02-18T02:27:34;73.47;;;43.63;;
11777;SDS011;5946;51.770;8.548;2023-02-18T02:37:40;77.03;;;41.53;;
11777;SDS011;5946;51.770;8.548;2023-02-18T02:42:40;64.83;;;38.10;;
11777;SDS011;5946;51.770;8.548;2023-02-18T02:47:51;66.33;;;38.83;;
11777;SDS011;5946;51.770;8.548;2023-02-18T02:53:10;66.80;;;37.43;;
11777;SDS011;5946;51.770;8.548;2023-02-18T02:55:38;69.37;;;39.27;;
11777;SDS011;5946;51.770;8.548;2023-02-18T02:58:04;68.03;;;38.17;;
11777;SDS011;5946;51.770;8.548;2023-02-18T03:03:06;65.43;;;35.83;;
11777;SDS011;5946;51.770;8.548;2023-02-18T03:16:13;78.27;;;40.93;;
11777;SDS011;5946;51.770;8.548;2023-02-18T03:18:44;80.23;;;41.27;;
11777;SDS011;5946;51.770;8.548;2023-02-18T03:26:55;91.10;;;44.03;;
11777;SDS011;5946;51.770;8.548;2023-02-18T03:29:21;96.13;;;45.63;;
11777;SDS011;5946;51.770;8.548;2023-02-18T03:31:50;94.33;;;44.23;;
11777;SDS011;5946;51.770;8.548;2023-02-18T03:34:19;91.87;;;44.97;;
11777;SDS011;5946;51.770;8.548;2023-02-18T03:36:47;86.00;;;40.93;;
11777;SDS011;5946;51.770;8.548;2023-02-18T03:39:15;95.73;;;43.13;;
11777;SDS011;5946;51.770;8.548;2023-02-18T03:41:41;91.57;;;43.07;;
11777;SDS011;5946;51.770;8.548;2023-02-18T03:44:08;94.10;;;41.83;;
11777;SDS011;5946;51.770;8.548;2023-02-18T03:46:34;97.83;;;41.97;;
11777;SDS011;5946;51.770;8.548;2023-02-18T03:49:02;89.03;;;39.67;;
11777;SDS011;5946;51.770;8.548;2023-02-18T03:51:28;89.03;;;39.80;;
11777;SDS011;5946;51.770;8.548;2023-02-18T03:53:54;95.47;;;41.20;;
11777;SDS011;5946;51.770;8.548;2023-02-18T03:56:20;86.47;;;36.83;;
11777;SDS011;5946;51.770;8.548;2023-02-18T03:58:45;94.10;;;38.27;;
11777;SDS011;5946;51.770;8.548;2023-02-18T04:01:11;84.10;;;38.37;;
11777;SDS011;5946;51.770;8.548;2023-02-18T04:03:37;95.50;;;39.17;;
11777;SDS011;5946;51.770;8.548;2023-02-18T04:06:03;92.57;;;36.77;;
11777;SDS011;5946;51.770;8.548;2023-02-18T04:08:30;92.80;;;38.33;;
11777;SDS011;5946;51.770;8.548;2023-02-18T04:10:55;82.43;;;36.23;;
11777;SDS011;5946;51.770;8.548;2023-02-18T04:13:21;89.83;;;37.73;;
11777;SDS011;5946;51.770;8.548;2023-02-18T04:15:48;88.70;;;38.93;;
11777;SDS011;5946;51.770;8.548;2023-02-18T04:18:14;87.37;;;36.93;;
11777;SDS011;5946;51.770;8.548;2023-02-18T04:20:40;95.17;;;37.77;;
11777;SDS011;5946;51.770;8.548;2023-02-18T04:23:06;89.83;;;36.63;;
11777;SDS011;5946;51.770;8.548;2023-02-18T04:25:32;87.60;;;36.40;;
11777;SDS011;5946;51.770;8.548;2023-02-18T04:27:58;94.17;;;36.97;;
11777;SDS011;5946;51.770;8.548;2023-02-18T04:30:24;86.17;;;36.40;;
11777;SDS011;5946;51.770;8.548;2023-02-18T04:32:50;80.87;;;35.10;;
11777;SDS011;5946;51.770;8.548;2023-02-18T04:35:17;79.17;;;34.77;;
11777;SDS011;5946;51.770;8.548;2023-02-18T04:37:43;79.37;;;35.07;;
11777;SDS011;5946;51.770;8.548;2023-02-18T04:40:09;77.77;;;33.87;;
11777;SDS011;5946;51.770;8.548;2023-02-18T04:42:35;73.30;;;33.80;;
11777;SDS011;5946;51.770;8.548;2023-02-18T04:45:01;74.47;;;32.93;;
11777;SDS011;5946;51.770;8.548;2023-02-18T04:47:27;71.17;;;32.43;;
11777;SDS011;5946;51.770;8.548;2023-02-18T04:49:52;67.10;;;31.77;;
11777;SDS011;5946;51.770;8.548;2023-02-18T04:52:18;68.23;;;31.27;;
11777;SDS011;5946;51.770;8.548;2023-02-18T04:54:44;63.03;;;30.13;;
11777;SDS011;5946;51.770;8.548;2023-02-18T04:57:10;65.43;;;30.27;;
11777;SDS011;5946;51.770;8.548;2023-02-18T04:59:37;53.67;;;26.43;;
11777;SDS011;5946;51.770;8.548;2023-02-18T05:02:03;57.43;;;27.13;;
11777;SDS011;5946;51.770;8.548;2023-02-18T05:04:29;56.07;;;26.07;;
11777;SDS011;5946;51.770;8.548;2023-02-18T05:06:55;52.17;;;25.90;;
11777;SDS011;5946;51.770;8.548;2023-02-18T05:09:21;48.00;;;24.57;;
11777;SDS011;5946;51.770;8.548;2023-02-18T05:11:47;46.67;;;23.53;;
11777;SDS011;5946;51.770;8.548;2023-02-18T05:14:13;47.73;;;23.57;;
11777;SDS011;5946;51.770;8.548;2023-02-18T05:16:40;42.37;;;22.03;;
11777;SDS011;5946;51.770;8.548;2023-02-18T05:19:06;37.70;;;19.77;;
11777;SDS011;5946;51.770;8.548;2023-02-18T05:21:32;39.33;;;18.20;;
11777;SDS011;5946;51.770;8.548;2023-02-18T05:23:58;37.20;;;19.00;;
11777;SDS011;5946;51.770;8.548;2023-02-18T05:26:24;35.10;;;18.77;;
11777;SDS011;5946;51.770;8.548;2023-02-18T05:28:50;37.83;;;19.13;;
11777;SDS011;5946;51.770;8.548;2023-02-18T05:31:16;33.80;;;17.43;;
11777;SDS011;5946;51.770;8.548;2023-02-18T05:33:42;37.30;;;18.43;;
11777;SDS011;5946;51.770;8.548;2023-02-18T05:36:08;33.77;;;17.47;;
11777;SDS011;5946;51.770;8.548;2023-02-18T05:38:34;33.93;;;17.23;;
11777;SDS011;5946;51.770;8.548;2023-02-18T05:41:00;33.50;;;17.47;;
11777;SDS011;5946;51.770;8.548;2023-02-18T05:43:26;33.20;;;16.27;;
11777;SDS011;5946;51.770;8.548;2023-02-18T05:45:51;33.30;;;15.90;;
11777;SDS011;5946;51.770;8.548;2023-02-18T05:48:17;31.70;;;16.17;;
11777;SDS011;5946;51.770;8.548;2023-02-18T05:50:43;30.67;;;15.00;;
11777;SDS011;5946;51.770;8.548;2023-02-18T05:53:09;30.77;;;14.77;;
11777;SDS011;5946;51.770;8.548;2023-02-18T05:55:35;30.00;;;14.67;;
11777;SDS011;5946;51.770;8.548;2023-02-18T05:58:03;29.50;;;13.67;;
11777;SDS011;5946;51.770;8.548;2023-02-18T06:00:29;27.00;;;13.13;;
11777;SDS011;5946;51.770;8.548;2023-02-18T06:02:55;25.93;;;13.03;;
11777;SDS011;5946;51.770;8.548;2023-02-18T06:05:21;26.33;;;12.30;;
11777;SDS011;5946;51.770;8.548;2023-02-18T06:07:47;28.33;;;12.03;;
11777;SDS011;5946;51.770;8.548;2023-02-18T06:10:13;26.03;;;12.03;;
11777;SDS011;5946;51.770;8.548;2023-02-18T06:12:39;23.10;;;11.57;;
11777;SDS011;5946;51.770;8.548;2023-02-18T06:15:05;21.03;;;10.27;;
11777;SDS011;5946;51.770;8.548;2023-02-18T06:17:31;21.13;;;10.03;;
11777;SDS011;5946;51.770;8.548;2023-02-18T06:19:57;20.50;;;9.43;;
11777;SDS011;5946;51.770;8.548;2023-02-18T06:22:23;16.93;;;8.43;;
11777;SDS011;5946;51.770;8.548;2023-02-18T06:24:49;16.47;;;8.23;;
11777;SDS011;5946;51.770;8.548;2023-02-18T06:27:15;17.03;;;7.97;;
11777;SDS011;5946;51.770;8.548;2023-02-18T06:29:41;13.37;;;7.33;;
11777;SDS011;5946;51.770;8.548;2023-02-18T06:32:07;13.57;;;7.07;;
11777;SDS011;5946;51.770;8.548;2023-02-18T06:34:33;10.90;;;6.43;;
11777;SDS011;5946;51.770;8.548;2023-02-18T06:36:59;14.33;;;6.77;;
11777;SDS011;5946;51.770;8.548;2023-02-18T06:39:25;11.40;;;5.97;;
11777;SDS011;5946;51.770;8.548;2023-02-18T06:41:51;10.00;;;5.50;;
11777;SDS011;5946;51.770;8.548;2023-02-18T06:44:17;9.03;;;5.30;;
11777;SDS011;5946;51.770;8.548;2023-02-18T06:46:43;10.33;;;4.87;;
11777;SDS011;5946;51.770;8.548;2023-02-18T06:49:09;8.03;;;4.80;;
11777;SDS011;5946;51.770;8.548;2023-02-18T06:51:35;5.93;;;4.40;;
11777;SDS011;5946;51.770;8.548;2023-02-18T06:54:01;6.07;;;4.70;;
11777;SDS011;5946;51.770;8.548;2023-02-18T06:56:27;7.77;;;5.20;;
11777;SDS011;5946;51.770;8.548;2023-02-18T06:58:52;7.30;;;4.70;;
11777;SDS011;5946;51.770;8.548;2023-02-18T07:01:18;9.37;;;4.10;;
11777;SDS011;5946;51.770;8.548;2023-02-18T07:03:44;6.93;;;4.73;;
11777;SDS011;5946;51.770;8.548;2023-02-18T07:06:10;5.77;;;4.33;;
11777;SDS011;5946;51.770;8.548;2023-02-18T07:08:36;7.13;;;4.10;;
11777;SDS011;5946;51.770;8.548;2023-02-18T07:11:03;6.67;;;3.97;;
11777;SDS011;5946;51.770;8.548;2023-02-18T07:13:29;5.37;;;4.00;;
11777;SDS011;5946;51.770;8.548;2023-02-18T07:15:55;5.97;;;4.23;;
11777;SDS011;5946;51.770;8.548;2023-02-18T07:18:21;4.80;;;4.20;;
11777;SDS011;5946;51.770;8.548;2023-02-18T07:20:46;5.80;;;3.87;;
11777;SDS011;5946;51.770;8.548;2023-02-18T07:23:12;4.47;;;3.70;;
11777;SDS011;5946;51.770;8.548;2023-02-18T07:25:38;4.97;;;3.80;;
11777;SDS011;5946;51.770;8.548;2023-02-18T07:28:05;3.93;;;3.20;;
11777;SDS011;5946;51.770;8.548;2023-02-18T07:30:31;3.90;;;3.40;;
11777;SDS011;5946;51.770;8.548;2023-02-18T07:32:56;4.70;;;3.63;;
11777;SDS011;5946;51.770;8.548;2023-02-18T07:35:22;4.20;;;3.40;;
11777;SDS011;5946;51.770;8.548;2023-02-18T07:37:49;4.90;;;3.63;;
11777;SDS011;5946;51.770;8.548;2023-02-18T07:40:16;4.10;;;3.70;;
11777;SDS011;5946;51.770;8.548;2023-02-18T07:42:42;3.77;;;3.10;;
11777;SDS011;5946;51.770;8.548;2023-02-18T07:45:08;5.27;;;3.50;;
11777;SDS011;5946;51.770;8.548;2023-02-18T07:47:34;4.33;;;3.53;;
11777;SDS011;5946;51.770;8.548;2023-02-18T07:50:00;6.00;;;3.60;;
11777;SDS011;5946;51.770;8.548;2023-02-18T07:52:26;3.60;;;2.90;;
11777;SDS011;5946;51.770;8.548;2023-02-18T07:54:52;5.87;;;3.70;;
11777;SDS011;5946;51.770;8.548;2023-02-18T07:57:18;4.73;;;3.97;;
11777;SDS011;5946;51.770;8.548;2023-02-18T07:59:44;7.00;;;3.80;;
11777;SDS011;5946;51.770;8.548;2023-02-18T08:02:14;6.07;;;4.17;;
11777;SDS011;5946;51.770;8.548;2023-02-18T08:04:42;6.13;;;3.30;;
11777;SDS011;5946;51.770;8.548;2023-02-18T08:07:11;3.83;;;3.40;;
11777;SDS011;5946;51.770;8.548;2023-02-18T08:09:37;5.30;;;3.57;;
11777;SDS011;5946;51.770;8.548;2023-02-18T08:12:03;4.03;;;3.20;;
11777;SDS011;5946;51.770;8.548;2023-02-18T08:14:29;4.20;;;3.20;;
11777;SDS011;5946;51.770;8.548;2023-02-18T08:16:55;4.00;;;3.40;;
11777;SDS011;5946;51.770;8.548;2023-02-18T08:19:21;4.20;;;3.20;;
11777;SDS011;5946;51.770;8.548;2023-02-18T08:21:47;5.70;;;3.50;;
11777;SDS011;5946;51.770;8.548;2023-02-18T08:24:13;3.67;;;2.93;;
11777;SDS011;5946;51.770;8.548;2023-02-18T08:26:39;3.70;;;3.10;;
11777;SDS011;5946;51.770;8.548;2023-02-18T08:29:05;4.50;;;3.50;;
11777;SDS011;5946;51.770;8.548;2023-02-18T08:31:31;5.03;;;3.57;;
11777;SDS011;5946;51.770;8.548;2023-02-18T08:33:57;4.40;;;3.40;;
11777;SDS011;5946;51.770;8.548;2023-02-18T08:36:24;5.43;;;3.70;;
11777;SDS011;5946;51.770;8.548;2023-02-18T08:38:50;4.13;;;3.30;;
11777;SDS011;5946;51.770;8.548;2023-02-18T08:41:16;5.93;;;3.93;;
11777;SDS011;5946;51.770;8.548;2023-02-18T08:43:42;5.30;;;4.23;;
11777;SDS011;5946;51.770;8.548;2023-02-18T08:46:08;5.73;;;4.03;;
11777;SDS011;5946;51.770;8.548;2023-02-18T08:48:34;5.80;;;4.50;;
11777;SDS011;5946;51.770;8.548;2023-02-18T08:51:09;5.37;;;4.03;;
11777;SDS011;5946;51.770;8.548;2023-02-18T08:53:35;20.90;;;12.07;;
11777;SDS011;5946;51.770;8.548;2023-02-18T08:56:04;7.23;;;6.13;;
11777;SDS011;5946;51.770;8.548;2023-02-18T08:58:29;8.73;;;6.27;;
11777;SDS011;5946;51.770;8.548;2023-02-18T09:00:55;5.93;;;4.60;;
11777;SDS011;5946;51.770;8.548;2023-02-18T09:03:26;6.33;;;5.20;;
11777;SDS011;5946;51.770;8.548;2023-02-18T09:05:51;6.83;;;5.20;;
11777;SDS011;5946;51.770;8.548;2023-02-18T09:08:17;7.33;;;5.73;;
11777;SDS011;5946;51.770;8.548;2023-02-18T09:10:43;8.50;;;6.07;;
11777;SDS011;5946;51.770;8.548;2023-02-18T09:13:09;10.57;;;5.70;;
11777;SDS011;5946;51.770;8.548;2023-02-18T09:15:35;9.57;;;7.40;;
11777;SDS011;5946;51.770;8.548;2023-02-18T09:18:01;9.57;;;7.27;;
11777;SDS011;5946;51.770;8.548;2023-02-18T09:20:27;11.10;;;7.73;;
11777;SDS011;5946;51.770;8.548;2023-02-18T09:22:53;8.43;;;7.23;;
11777;SDS011;5946;51.770;8.548;2023-02-18T09:25:19;8.63;;;7.20;;
11777;SDS011;5946;51.770;8.548;2023-02-18T09:27:45;9.07;;;6.70;;
11777;SDS011;5946;51.770;8.548;2023-02-18T09:30:11;8.50;;;7.00;;
11777;SDS011;5946;51.770;8.548;2023-02-18T09:32:37;10.80;;;6.77;;
11777;SDS011;5946;51.770;8.548;2023-02-18T09:35:03;6.63;;;5.33;;
11777;SDS011;5946;51.770;8.548;2023-02-18T09:37:29;5.20;;;4.70;;
11777;SDS011;5946;51.770;8.548;2023-02-18T09:39:55;5.83;;;4.10;;
11777;SDS011;5946;51.770;8.548;2023-02-18T09:42:23;5.47;;;3.70;;
11777;SDS011;5946;51.770;8.548;2023-02-18T09:44:53;5.77;;;4.00;;
11777;SDS011;5946;51.770;8.548;2023-02-18T09:47:29;5.77;;;3.57;;
11777;SDS011;5946;51.770;8.548;2023-02-18T09:49:57;3.40;;;3.10;;
11777;SDS011;5946;51.770;8.548;2023-02-18T09:52:27;3.50;;;3.07;;
11777;SDS011;5946;51.770;8.548;2023-02-18T09:54:54;4.17;;;3.77;;
11777;SDS011;5946;51.770;8.548;2023-02-18T09:57:35;3.23;;;2.77;;
11777;SDS011;5946;51.770;8.548;2023-02-18T10:00:12;3.07;;;2.70;;
11777;SDS011;5946;51.770;8.548;2023-02-18T10:02:39;4.50;;;4.07;;
11777;SDS011;5946;51.770;8.548;2023-02-18T10:05:08;4.17;;;2.60;;
11777;SDS011;5946;51.770;8.548;2023-02-18T10:07:38;4.53;;;3.00;;
11777;SDS011;5946;51.770;8.548;2023-02-18T10:10:15;4.77;;;2.70;;
11777;SDS011;5946;51.770;8.548;2023-02-18T10:12:43;3.30;;;2.87;;
11777;SDS011;5946;51.770;8.548;2023-02-18T10:15:12;3.60;;;3.00;;
11777;SDS011;5946;51.770;8.548;2023-02-18T10:17:42;3.93;;;2.63;;
11777;SDS011;5946;51.770;8.548;2023-02-18T10:20:09;8.47;;;2.80;;
11777;SDS011;5946;51.770;8.548;2023-02-18T10:22:36;5.33;;;3.50;;
11777;SDS011;5946;51.770;8.548;2023-02-18T10:25:03;8.80;;;3.77;;
11777;SDS011;5946;51.770;8.548;2023-02-18T10:27:31;5.07;;;4.20;;
11777;SDS011;5946;51.770;8.548;2023-02-18T10:30:20;7.03;;;5.27;;
11777;SDS011;5946;51.770;8.548;2023-02-18T10:32:47;10.47;;;6.40;;
11777;SDS011;5946;51.770;8.548;2023-02-18T10:35:18;10.77;;;6.67;;
11777;SDS011;5946;51.770;8.548;2023-02-18T10:38:01;11.03;;;7.27;;
11777;SDS011;5946;51.770;8.548;2023-02-18T10:43:24;14.80;;;8.53;;
11777;SDS011;5946;51.770;8.548;2023-02-18T10:45:59;15.20;;;9.57;;
11777;SDS011;5946;51.770;8.548;2023-02-18T10:48:41;18.63;;;9.40;;
11777;SDS011;5946;51.770;8.548;2023-02-18T10:51:22;19.07;;;9.90;;
11777;SDS011;5946;51.770;8.548;2023-02-18T10:53:50;18.93;;;9.10;;
11777;SDS011;5946;51.770;8.548;2023-02-18T10:56:37;12.40;;;8.67;;
11777;SDS011;5946;51.770;8.548;2023-02-18T10:59:20;13.50;;;9.17;;
11777;SDS011;5946;51.770;8.548;2023-02-18T11:01:52;15.20;;;9.53;;
11777;SDS011;5946;51.770;8.548;2023-02-18T11:04:19;17.43;;;9.20;;
11777;SDS011;5946;51.770;8.548;2023-02-18T11:06:46;18.07;;;8.97;;
11777;SDS011;5946;51.770;8.548;2023-02-18T11:11:48;16.33;;;10.17;;
11777;SDS011;5946;51.770;8.548;2023-02-18T11:14:14;20.50;;;9.57;;
11777;SDS011;5946;51.770;8.548;2023-02-18T11:16:43;20.63;;;11.50;;
11777;SDS011;5946;51.770;8.548;2023-02-18T11:19:29;17.73;;;10.23;;
11777;SDS011;5946;51.770;8.548;2023-02-18T11:22:05;17.83;;;10.40;;
11777;SDS011;5946;51.770;8.548;2023-02-18T11:24:31;22.93;;;11.00;;
11777;SDS011;5946;51.770;8.548;2023-02-18T11:27:06;17.67;;;10.63;;
11777;SDS011;5946;51.770;8.548;2023-02-18T11:29:33;16.07;;;9.60;;
11777;SDS011;5946;51.770;8.548;2023-02-18T11:31:59;19.43;;;10.60;;
11777;SDS011;5946;51.770;8.548;2023-02-18T11:34:26;16.93;;;10.07;;
11777;SDS011;5946;51.770;8.548;2023-02-18T11:36:52;20.67;;;10.67;;
11777;SDS011;5946;51.770;8.548;2023-02-18T11:41:46;15.10;;;9.67;;
11777;SDS011;5946;51.770;8.548;2023-02-18T11:44:17;17.83;;;10.07;;
11777;SDS011;5946;51.770;8.548;2023-02-18T11:46:55;14.27;;;9.70;;
11777;SDS011;5946;51.770;8.548;2023-02-18T11:49:21;15.33;;;9.77;;
11777;SDS011;5946;51.770;8.548;2023-02-18T11:51:48;15.53;;;9.80;;
11777;SDS011;5946;51.770;8.548;2023-02-18T11:56:54;14.37;;;8.87;;
11777;SDS011;5946;51.770;8.548;2023-02-18T11:59:21;16.13;;;9.47;;
11777;SDS011;5946;51.770;8.548;2023-02-18T12:01:52;13.10;;;8.33;;
11777;SDS011;5946;51.770;8.548;2023-02-18T12:04:30;15.17;;;8.13;;
11777;SDS011;5946;51.770;8.548;2023-02-18T12:09:42;13.70;;;8.90;;
11777;SDS011;5946;51.770;8.548;2023-02-18T12:12:14;14.30;;;7.93;;
11777;SDS011;5946;51.770;8.548;2023-02-18T12:14:42;13.00;;;9.57;;
11777;SDS011;5946;51.770;8.548;2023-02-18T12:19:56;15.63;;;9.33;;
11777;SDS011;5946;51.770;8.548;2023-02-18T12:23:01;16.00;;;9.70;;
11777;SDS011;5946;51.770;8.548;2023-02-18T12:33:00;15.00;;;10.47;;
11777;SDS011;5946;51.770;8.548;2023-02-18T12:35:34;15.43;;;10.03;;
11777;SDS011;5946;51.770;8.548;2023-02-18T12:38:12;17.70;;;10.90;;
11777;SDS011;5946;51.770;8.548;2023-02-18T12:40:47;17.53;;;10.87;;
11777;SDS011;5946;51.770;8.548;2023-02-18T12:43:21;19.60;;;11.23;;
11777;SDS011;5946;51.770;8.548;2023-02-18T12:45:58;18.40;;;12.03;;
11777;SDS011;5946;51.770;8.548;2023-02-18T12:48:33;22.57;;;14.23;;
11777;SDS011;5946;51.770;8.548;2023-02-18T12:51:17;17.30;;;11.83;;
11777;SDS011;5946;51.770;8.548;2023-02-18T12:53:52;20.27;;;12.60;;
11777;SDS011;5946;51.770;8.548;2023-02-18T13:04:27;21.33;;;14.43;;
11777;SDS011;5946;51.770;8.548;2023-02-18T13:14:36;21.23;;;14.33;;
11777;SDS011;5946;51.770;8.548;2023-02-18T13:17:07;21.20;;;14.97;;
11777;SDS011;5946;51.770;8.548;2023-02-18T13:19:43;21.17;;;14.90;;
11777;SDS011;5946;51.770;8.548;2023-02-18T13:22:10;20.07;;;14.53;;
11777;SDS011;5946;51.770;8.548;2023-02-18T13:24:38;18.90;;;14.60;;
11777;SDS011;5946;51.770;8.548;2023-02-18T13:27:18;19.60;;;13.27;;
11777;SDS011;5946;51.770;8.548;2023-02-18T13:30:01;18.97;;;14.13;;
11777;SDS011;5946;51.770;8.548;2023-02-18T13:40:21;20.03;;;14.03;;
11777;SDS011;5946;51.770;8.548;2023-02-18T13:42:51;18.90;;;14.27;;
11777;SDS011;5946;51.770;8.548;2023-02-18T13:45:22;19.20;;;14.27;;
11777;SDS011;5946;51.770;8.548;2023-02-18T13:47:49;19.23;;;15.23;;
11777;SDS011;5946;51.770;8.548;2023-02-18T13:50:20;22.27;;;15.13;;
11777;SDS011;5946;51.770;8.548;2023-02-18T13:55:20;20.17;;;14.90;;
11777;SDS011;5946;51.770;8.548;2023-02-18T13:57:48;21.67;;;15.73;;
11777;SDS011;5946;51.770;8.548;2023-02-18T14:00:21;20.73;;;16.07;;
11777;SDS011;5946;51.770;8.548;2023-02-18T14:02:55;21.83;;;15.30;;
11777;SDS011;5946;51.770;8.548;2023-02-18T14:05:22;19.77;;;16.47;;
11777;SDS011;5946;51.770;8.548;2023-02-18T14:07:50;19.30;;;15.23;;
11777;SDS011;5946;51.770;8.548;2023-02-18T14:23:37;23.03;;;17.30;;
11777;SDS011;5946;51.770;8.548;2023-02-18T14:25:54;24.20;;;18.53;;
11777;SDS011;5946;51.770;8.548;2023-02-18T14:28:43;25.03;;;18.23;;
11777;SDS011;5946;51.770;8.548;2023-02-18T14:33:43;23.10;;;16.30;;
11777;SDS011;5946;51.770;8.548;2023-02-18T14:38:49;20.43;;;14.47;;
11777;SDS011;5946;51.770;8.548;2023-02-18T14:41:21;19.07;;;13.77;;
11777;SDS011;5946;51.770;8.548;2023-02-18T14:49:22;14.97;;;12.30;;
11777;SDS011;5946;51.770;8.548;2023-02-18T14:51:51;14.37;;;11.47;;
11777;SDS011;5946;51.770;8.548;2023-02-18T14:54:18;14.87;;;11.63;;
11777;SDS011;5946;51.770;8.548;2023-02-18T14:56:55;16.07;;;12.30;;
11777;SDS011;5946;51.770;8.548;2023-02-18T14:59:23;15.07;;;11.97;;
11777;SDS011;5946;51.770;8.548;2023-02-18T15:01:52;18.57;;;12.87;;
11777;SDS011;5946;51.770;8.548;2023-02-18T15:04:18;16.43;;;12.77;;
11777;SDS011;5946;51.770;8.548;2023-02-18T15:06:44;19.07;;;14.37;;
11777;SDS011;5946;51.770;8.548;2023-02-18T15:11:43;20.43;;;15.13;;
11777;SDS011;5946;51.770;8.548;2023-02-18T15:14:13;19.17;;;14.00;;
11777;SDS011;5946;51.770;8.548;2023-02-18T15:16:39;19.10;;;14.30;;
11777;SDS011;5946;51.770;8.548;2023-02-18T15:19:06;19.50;;;15.07;;
11777;SDS011;5946;51.770;8.548;2023-02-18T15:21:38;22.97;;;17.10;;
11777;SDS011;5946;51.770;8.548;2023-02-18T15:24:08;21.17;;;15.43;;
11777;SDS011;5946;51.770;8.548;2023-02-18T15:26:35;24.47;;;16.33;;
11777;SDS011;5946;51.770;8.548;2023-02-18T15:29:11;22.90;;;16.63;;
11777;SDS011;5946;51.770;8.548;2023-02-18T15:31:39;25.17;;;16.80;;
11777;SDS011;5946;51.770;8.548;2023-02-18T15:36:51;25.97;;;16.77;;
11777;SDS011;5946;51.770;8.548;2023-02-18T15:39:16;26.73;;;17.87;;
11777;SDS011;5946;51.770;8.548;2023-02-18T15:41:42;26.23;;;16.73;;
11777;SDS011;5946;51.770;8.548;2023-02-18T15:44:15;25.73;;;16.80;;
11777;SDS011;5946;51.770;8.548;2023-02-18T15:46:42;28.80;;;18.43;;
11777;SDS011;5946;51.770;8.548;2023-02-18T15:49:08;26.27;;;17.90;;
11777;SDS011;5946;51.770;8.548;2023-02-18T15:51:34;27.93;;;18.27;;
11777;SDS011;5946;51.770;8.548;2023-02-18T15:54:01;32.87;;;19.17;;
11777;SDS011;5946;51.770;8.548;2023-02-18T15:56:29;31.63;;;20.27;;
11777;SDS011;5946;51.770;8.548;2023-02-18T15:59:06;34.13;;;20.67;;
11777;SDS011;5946;51.770;8.548;2023-02-18T16:01:33;29.10;;;19.13;;
11777;SDS011;5946;51.770;8.548;2023-02-18T16:03:59;34.33;;;20.70;;
11777;SDS011;5946;51.770;8.548;2023-02-18T16:06:29;38.83;;;23.07;;
11777;SDS011;5946;51.770;8.548;2023-02-18T16:09:15;37.70;;;23.33;;
11777;SDS011;5946;51.770;8.548;2023-02-18T16:11:46;43.00;;;25.23;;
11777;SDS011;5946;51.770;8.548;2023-02-18T16:14:26;44.13;;;26.30;;
11777;SDS011;5946;51.770;8.548;2023-02-18T16:17:06;46.57;;;26.47;;
11777;SDS011;5946;51.770;8.548;2023-02-18T16:19:32;41.93;;;26.37;;
11777;SDS011;5946;51.770;8.548;2023-02-18T16:22:02;46.17;;;26.93;;
11777;SDS011;5946;51.770;8.548;2023-02-18T16:24:30;42.00;;;25.67;;
11777;SDS011;5946;51.770;8.548;2023-02-18T16:26:59;44.63;;;26.67;;
11777;SDS011;5946;51.770;8.548;2023-02-18T16:29:39;47.93;;;27.67;;
11777;SDS011;5946;51.770;8.548;2023-02-18T16:32:06;46.40;;;27.10;;
11777;SDS011;5946;51.770;8.548;2023-02-18T16:34:32;45.60;;;28.53;;
11777;SDS011;5946;51.770;8.548;2023-02-18T16:36:59;44.93;;;26.30;;
11777;SDS011;5946;51.770;8.548;2023-02-18T16:39:44;47.77;;;27.53;;
11777;SDS011;5946;51.770;8.548;2023-02-18T16:42:10;45.40;;;27.53;;
11777;SDS011;5946;51.770;8.548;2023-02-18T16:44:37;46.27;;;27.03;;
11777;SDS011;5946;51.770;8.548;2023-02-18T16:47:03;51.50;;;28.50;;
11777;SDS011;5946;51.770;8.548;2023-02-18T16:49:29;48.77;;;27.87;;
11777;SDS011;5946;51.770;8.548;2023-02-18T16:51:55;50.80;;;29.73;;